sensor_id;sensor_type;location;lat;lon;timestamp;temperature;humidity
40996;DHT22;26723;57.478;12.066;2022-10-16T00:02:17;13.40;99.90
40996;DHT22;26723;57.478;12.066;2022-10-16T00:05:26;13.40;99.90
40996;DHT22;26723;57.478;12.066;2022-10-16T00:08:36;13.30;99.90
40996;DHT22;26723;57.478;12.066;2022-10-16T00:11:46;13.30;99.90
40996;DHT22;26723;57.478;12.066;2022-10-16T00:14:54;13.20;99.90
40996;DHT22;26723;57.478;12.066;2022-10-16T00:18:04;13.20;99.90
40996;DHT22;26723;57.478;12.066;2022-10-16T00:21:15;13.10;99.90
40996;DHT22;26723;57.478;12.066;2022-10-16T00:24:24;13.00;99.90
40996;DHT22;26723;57.478;12.066;2022-10-16T00:27:34;13.00;99.90
40996;DHT22;26723;57.478;12.066;2022-10-16T00:30:42;12.90;99.90
40996;DHT22;26723;57.478;12.066;2022-10-16T00:33:51;12.90;99.90
40996;DHT22;26723;57.478;12.066;2022-10-16T00:37:00;12.90;99.90
40996;DHT22;26723;57.478;12.066;2022-10-16T00:40:09;12.80;99.90
40996;DHT22;26723;57.478;12.066;2022-10-16T00:46:53;12.80;99.90
40996;DHT22;26723;57.478;12.066;2022-10-16T00:50:06;12.70;99.90
40996;DHT22;26723;57.478;12.066;2022-10-16T00:53:16;12.70;99.90
40996;DHT22;26723;57.478;12.066;2022-10-16T00:56:25;12.60;99.90
40996;DHT22;26723;57.478;12.066;2022-10-16T00:59:36;12.60;99.90
40996;DHT22;26723;57.478;12.066;2022-10-16T01:02:53;12.50;99.90
40996;DHT22;26723;57.478;12.066;2022-10-16T01:06:19;12.50;99.90
40996;DHT22;26723;57.478;12.066;2022-10-16T01:09:36;12.40;99.90
40996;DHT22;26723;57.478;12.066;2022-10-16T01:12:51;12.40;99.90
40996;DHT22;26723;57.478;12.066;2022-10-16T01:16:06;12.30;99.90
40996;DHT22;26723;57.478;12.066;2022-10-16T01:19:34;12.30;99.90
40996;DHT22;26723;57.478;12.066;2022-10-16T01:22:55;12.20;99.90
40996;DHT22;26723;57.478;12.066;2022-10-16T01:26:15;12.20;99.90
40996;DHT22;26723;57.478;12.066;2022-10-16T01:29:31;12.10;99.90
40996;DHT22;26723;57.478;12.066;2022-10-16T01:32:48;12.10;99.90
40996;DHT22;26723;57.478;12.066;2022-10-16T01:36:05;12.00;99.90
40996;DHT22;26723;57.478;12.066;2022-10-16T01:39:16;12.00;99.90
40996;DHT22;26723;57.478;12.066;2022-10-16T01:42:31;11.90;99.90
40996;DHT22;26723;57.478;12.066;2022-10-16T01:45:45;11.90;99.90
40996;DHT22;26723;57.478;12.066;2022-10-16T01:48:54;11.80;99.90
40996;DHT22;26723;57.478;12.066;2022-10-16T01:52:07;11.80;99.90
40996;DHT22;26723;57.478;12.066;2022-10-16T01:55:22;11.70;99.90
40996;DHT22;26723;57.478;12.066;2022-10-16T01:58:36;11.70;99.90
40996;DHT22;26723;57.478;12.066;2022-10-16T02:01:50;11.60;99.90
40996;DHT22;26723;57.478;12.066;2022-10-16T02:05:05;11.60;99.90
40996;DHT22;26723;57.478;12.066;2022-10-16T02:08:17;11.50;99.90
40996;DHT22;26723;57.478;12.066;2022-10-16T02:11:26;11.50;99.90
40996;DHT22;26723;57.478;12.066;2022-10-16T02:14:35;11.50;99.90
40996;DHT22;26723;57.478;12.066;2022-10-16T02:17:47;11.50;99.90
40996;DHT22;26723;57.478;12.066;2022-10-16T02:20:58;11.50;99.90
40996;DHT22;26723;57.478;12.066;2022-10-16T02:24:13;11.40;99.90
40996;DHT22;26723;57.478;12.066;2022-10-16T02:27:27;11.30;99.90
40996;DHT22;26723;57.478;12.066;2022-10-16T02:30:43;11.40;99.90
40996;DHT22;26723;57.478;12.066;2022-10-16T02:33:57;11.40;99.90
40996;DHT22;26723;57.478;12.066;2022-10-16T02:37:07;11.40;99.90
40996;DHT22;26723;57.478;12.066;2022-10-16T02:40:18;11.40;99.90
40996;DHT22;26723;57.478;12.066;2022-10-16T02:43:31;11.40;99.90
40996;DHT22;26723;57.478;12.066;2022-10-16T02:46:40;11.40;99.90
40996;DHT22;26723;57.478;12.066;2022-10-16T02:49:50;11.50;99.90
40996;DHT22;26723;57.478;12.066;2022-10-16T02:52:59;11.40;99.90
40996;DHT22;26723;57.478;12.066;2022-10-16T02:56:08;11.40;99.90
40996;DHT22;26723;57.478;12.066;2022-10-16T02:59:16;11.50;99.90
40996;DHT22;26723;57.478;12.066;2022-10-16T03:02:25;11.50;99.90
40996;DHT22;26723;57.478;12.066;2022-10-16T03:05:35;11.50;99.90
40996;DHT22;26723;57.478;12.066;2022-10-16T03:08:43;11.40;99.90
40996;DHT22;26723;57.478;12.066;2022-10-16T03:11:52;11.40;99.90
40996;DHT22;26723;57.478;12.066;2022-10-16T03:15:00;11.30;99.90
40996;DHT22;26723;57.478;12.066;2022-10-16T03:18:09;11.20;99.90
40996;DHT22;26723;57.478;12.066;2022-10-16T03:21:18;11.20;99.90
40996;DHT22;26723;57.478;12.066;2022-10-16T03:24:27;11.20;99.90
40996;DHT22;26723;57.478;12.066;2022-10-16T03:27:35;11.20;99.90
40996;DHT22;26723;57.478;12.066;2022-10-16T03:30:44;11.20;99.90
40996;DHT22;26723;57.478;12.066;2022-10-16T03:33:52;11.20;99.90
40996;DHT22;26723;57.478;12.066;2022-10-16T03:37:02;11.20;99.90
40996;DHT22;26723;57.478;12.066;2022-10-16T03:40:11;11.20;99.90
40996;DHT22;26723;57.478;12.066;2022-10-16T03:43:19;11.20;99.90
40996;DHT22;26723;57.478;12.066;2022-10-16T03:46:28;11.30;99.90
40996;DHT22;26723;57.478;12.066;2022-10-16T03:49:36;11.30;99.90
40996;DHT22;26723;57.478;12.066;2022-10-16T03:52:46;11.40;99.90
40996;DHT22;26723;57.478;12.066;2022-10-16T03:55:55;11.50;99.90
40996;DHT22;26723;57.478;12.066;2022-10-16T03:59:03;11.60;99.90
40996;DHT22;26723;57.478;12.066;2022-10-16T04:02:12;11.70;99.90
40996;DHT22;26723;57.478;12.066;2022-10-16T04:05:20;11.70;99.90
40996;DHT22;26723;57.478;12.066;2022-10-16T04:08:30;11.80;99.90
40996;DHT22;26723;57.478;12.066;2022-10-16T04:11:41;11.80;99.90
40996;DHT22;26723;57.478;12.066;2022-10-16T04:14:49;11.80;99.90
40996;DHT22;26723;57.478;12.066;2022-10-16T04:17:58;11.80;99.90
40996;DHT22;26723;57.478;12.066;2022-10-16T04:21:07;11.90;99.90
40996;DHT22;26723;57.478;12.066;2022-10-16T04:24:17;11.90;99.90
40996;DHT22;26723;57.478;12.066;2022-10-16T04:27:25;11.90;99.90
40996;DHT22;26723;57.478;12.066;2022-10-16T04:30:38;11.80;99.90
40996;DHT22;26723;57.478;12.066;2022-10-16T04:33:46;11.80;99.90
40996;DHT22;26723;57.478;12.066;2022-10-16T04:36:55;11.80;99.90
40996;DHT22;26723;57.478;12.066;2022-10-16T04:40:06;11.80;99.90
40996;DHT22;26723;57.478;12.066;2022-10-16T04:43:14;11.80;99.90
40996;DHT22;26723;57.478;12.066;2022-10-16T04:46:23;11.80;99.90
40996;DHT22;26723;57.478;12.066;2022-10-16T04:49:31;11.70;99.90
40996;DHT22;26723;57.478;12.066;2022-10-16T04:52:40;11.70;99.90
40996;DHT22;26723;57.478;12.066;2022-10-16T04:55:50;11.70;99.90
40996;DHT22;26723;57.478;12.066;2022-10-16T04:58:58;11.70;99.90
40996;DHT22;26723;57.478;12.066;2022-10-16T05:02:07;11.70;99.90
40996;DHT22;26723;57.478;12.066;2022-10-16T05:05:15;11.70;99.90
40996;DHT22;26723;57.478;12.066;2022-10-16T05:08:26;11.70;99.90
40996;DHT22;26723;57.478;12.066;2022-10-16T05:11:35;11.70;99.90
40996;DHT22;26723;57.478;12.066;2022-10-16T05:14:44;11.70;99.90
40996;DHT22;26723;57.478;12.066;2022-10-16T05:17:53;11.70;99.90
40996;DHT22;26723;57.478;12.066;2022-10-16T05:21:01;11.70;99.90
40996;DHT22;26723;57.478;12.066;2022-10-16T05:24:10;11.70;99.90
40996;DHT22;26723;57.478;12.066;2022-10-16T05:27:20;11.70;99.90
40996;DHT22;26723;57.478;12.066;2022-10-16T05:30:29;11.80;99.90
40996;DHT22;26723;57.478;12.066;2022-10-16T05:33:37;11.80;99.90
40996;DHT22;26723;57.478;12.066;2022-10-16T05:36:46;11.80;99.90
40996;DHT22;26723;57.478;12.066;2022-10-16T05:39:54;11.90;99.90
40996;DHT22;26723;57.478;12.066;2022-10-16T05:43:04;11.90;99.90
40996;DHT22;26723;57.478;12.066;2022-10-16T05:46:13;11.90;99.90
40996;DHT22;26723;57.478;12.066;2022-10-16T05:49:21;12.00;99.90
40996;DHT22;26723;57.478;12.066;2022-10-16T05:52:30;12.10;99.90
40996;DHT22;26723;57.478;12.066;2022-10-16T05:55:38;12.10;99.90
40996;DHT22;26723;57.478;12.066;2022-10-16T05:58:48;12.10;99.90
40996;DHT22;26723;57.478;12.066;2022-10-16T06:01:57;12.20;99.90
40996;DHT22;26723;57.478;12.066;2022-10-16T06:05:06;12.30;99.90
40996;DHT22;26723;57.478;12.066;2022-10-16T06:08:14;12.40;99.90
40996;DHT22;26723;57.478;12.066;2022-10-16T06:11:25;12.40;99.90
40996;DHT22;26723;57.478;12.066;2022-10-16T06:14:35;12.50;99.90
40996;DHT22;26723;57.478;12.066;2022-10-16T06:17:43;12.50;99.90
40996;DHT22;26723;57.478;12.066;2022-10-16T06:20:52;12.50;99.90
40996;DHT22;26723;57.478;12.066;2022-10-16T06:24:00;12.50;99.90
40996;DHT22;26723;57.478;12.066;2022-10-16T06:27:09;12.60;99.90
40996;DHT22;26723;57.478;12.066;2022-10-16T06:30:18;12.60;99.90
40996;DHT22;26723;57.478;12.066;2022-10-16T06:33:27;12.70;99.90
40996;DHT22;26723;57.478;12.066;2022-10-16T06:36:36;12.70;99.90
40996;DHT22;26723;57.478;12.066;2022-10-16T06:39:44;12.80;99.90
40996;DHT22;26723;57.478;12.066;2022-10-16T06:42:55;12.80;99.90
40996;DHT22;26723;57.478;12.066;2022-10-16T06:46:07;12.80;99.90
40996;DHT22;26723;57.478;12.066;2022-10-16T06:49:16;12.80;99.90
40996;DHT22;26723;57.478;12.066;2022-10-16T06:52:29;12.80;99.90
40996;DHT22;26723;57.478;12.066;2022-10-16T06:55:37;12.90;99.90
40996;DHT22;26723;57.478;12.066;2022-10-16T06:58:46;12.90;99.90
40996;DHT22;26723;57.478;12.066;2022-10-16T07:01:56;12.90;99.90
40996;DHT22;26723;57.478;12.066;2022-10-16T07:05:05;12.90;99.90
40996;DHT22;26723;57.478;12.066;2022-10-16T07:08:14;12.90;99.90
40996;DHT22;26723;57.478;12.066;2022-10-16T07:11:23;13.00;99.90
40996;DHT22;26723;57.478;12.066;2022-10-16T07:14:32;13.00;99.90
40996;DHT22;26723;57.478;12.066;2022-10-16T07:17:41;13.00;99.90
40996;DHT22;26723;57.478;12.066;2022-10-16T07:20:50;13.00;99.90
40996;DHT22;26723;57.478;12.066;2022-10-16T07:23:59;13.10;99.90
40996;DHT22;26723;57.478;12.066;2022-10-16T07:27:08;13.10;99.90
40996;DHT22;26723;57.478;12.066;2022-10-16T07:30:17;13.20;99.90
40996;DHT22;26723;57.478;12.066;2022-10-16T07:33:27;13.20;99.90
40996;DHT22;26723;57.478;12.066;2022-10-16T07:36:35;13.30;99.90
40996;DHT22;26723;57.478;12.066;2022-10-16T07:39:44;13.30;99.90
40996;DHT22;26723;57.478;12.066;2022-10-16T07:42:52;13.30;99.90
40996;DHT22;26723;57.478;12.066;2022-10-16T07:46:01;13.30;99.90
40996;DHT22;26723;57.478;12.066;2022-10-16T07:49:14;13.30;99.90
40996;DHT22;26723;57.478;12.066;2022-10-16T07:52:22;13.30;99.90
40996;DHT22;26723;57.478;12.066;2022-10-16T07:55:31;13.40;99.90
40996;DHT22;26723;57.478;12.066;2022-10-16T07:58:40;13.40;99.90
40996;DHT22;26723;57.478;12.066;2022-10-16T08:01:49;13.50;99.90
40996;DHT22;26723;57.478;12.066;2022-10-16T08:04:59;13.50;99.90
40996;DHT22;26723;57.478;12.066;2022-10-16T08:08:12;13.70;99.90
40996;DHT22;26723;57.478;12.066;2022-10-16T08:11:21;13.80;99.90
40996;DHT22;26723;57.478;12.066;2022-10-16T08:14:30;13.80;99.90
40996;DHT22;26723;57.478;12.066;2022-10-16T08:17:38;13.90;99.90
40996;DHT22;26723;57.478;12.066;2022-10-16T08:20:55;13.90;99.90
40996;DHT22;26723;57.478;12.066;2022-10-16T08:24:04;14.00;99.90
40996;DHT22;26723;57.478;12.066;2022-10-16T08:27:12;14.40;99.90
40996;DHT22;26723;57.478;12.066;2022-10-16T08:30:22;15.00;99.90
40996;DHT22;26723;57.478;12.066;2022-10-16T08:33:30;14.60;99.90
40996;DHT22;26723;57.478;12.066;2022-10-16T08:36:40;14.30;99.90
40996;DHT22;26723;57.478;12.066;2022-10-16T08:39:49;14.10;99.90
40996;DHT22;26723;57.478;12.066;2022-10-16T08:43:18;14.00;99.90
40996;DHT22;26723;57.478;12.066;2022-10-16T08:46:38;14.00;99.90
40996;DHT22;26723;57.478;12.066;2022-10-16T08:49:57;13.90;99.90
40996;DHT22;26723;57.478;12.066;2022-10-16T08:53:14;13.90;99.90
40996;DHT22;26723;57.478;12.066;2022-10-16T08:56:24;13.90;99.90
40996;DHT22;26723;57.478;12.066;2022-10-16T08:59:33;13.80;99.90
40996;DHT22;26723;57.478;12.066;2022-10-16T09:02:48;13.90;99.90
40996;DHT22;26723;57.478;12.066;2022-10-16T09:06:10;13.90;99.90
40996;DHT22;26723;57.478;12.066;2022-10-16T09:09:43;14.10;99.90
40996;DHT22;26723;57.478;12.066;2022-10-16T09:12:59;14.30;99.90
40996;DHT22;26723;57.478;12.066;2022-10-16T09:16:14;14.30;99.90
40996;DHT22;26723;57.478;12.066;2022-10-16T09:19:27;14.60;99.90
40996;DHT22;26723;57.478;12.066;2022-10-16T09:22:38;14.60;99.90
40996;DHT22;26723;57.478;12.066;2022-10-16T09:25:49;14.60;99.90
40996;DHT22;26723;57.478;12.066;2022-10-16T09:28:58;14.70;99.90
40996;DHT22;26723;57.478;12.066;2022-10-16T09:32:11;14.70;99.90
40996;DHT22;26723;57.478;12.066;2022-10-16T09:35:21;14.70;99.90
40996;DHT22;26723;57.478;12.066;2022-10-16T09:38:32;14.80;99.90
40996;DHT22;26723;57.478;12.066;2022-10-16T09:41:44;14.80;99.90
40996;DHT22;26723;57.478;12.066;2022-10-16T09:44:53;14.70;99.90
40996;DHT22;26723;57.478;12.066;2022-10-16T09:48:10;14.60;99.90
40996;DHT22;26723;57.478;12.066;2022-10-16T09:51:22;14.60;99.90
40996;DHT22;26723;57.478;12.066;2022-10-16T09:54:31;14.70;99.90
40996;DHT22;26723;57.478;12.066;2022-10-16T09:57:50;14.70;99.90
40996;DHT22;26723;57.478;12.066;2022-10-16T10:00:58;14.60;99.90
40996;DHT22;26723;57.478;12.066;2022-10-16T10:04:08;14.90;99.90
40996;DHT22;26723;57.478;12.066;2022-10-16T10:07:24;15.40;99.90
40996;DHT22;26723;57.478;12.066;2022-10-16T10:10:37;15.80;99.90
40996;DHT22;26723;57.478;12.066;2022-10-16T10:13:49;15.70;99.90
40996;DHT22;26723;57.478;12.066;2022-10-16T10:17:14;15.40;99.90
40996;DHT22;26723;57.478;12.066;2022-10-16T10:20:25;15.10;99.90
40996;DHT22;26723;57.478;12.066;2022-10-16T10:23:34;14.90;99.90
40996;DHT22;26723;57.478;12.066;2022-10-16T10:26:49;14.80;99.90
40996;DHT22;26723;57.478;12.066;2022-10-16T10:30:03;14.70;99.90
40996;DHT22;26723;57.478;12.066;2022-10-16T10:33:20;14.60;99.90
40996;DHT22;26723;57.478;12.066;2022-10-16T10:36:35;14.40;99.90
40996;DHT22;26723;57.478;12.066;2022-10-16T10:39:50;14.30;99.90
40996;DHT22;26723;57.478;12.066;2022-10-16T10:43:09;14.30;99.90
40996;DHT22;26723;57.478;12.066;2022-10-16T10:46:28;14.20;99.90
40996;DHT22;26723;57.478;12.066;2022-10-16T10:49:52;14.10;99.90
40996;DHT22;26723;57.478;12.066;2022-10-16T10:53:10;14.10;99.90
40996;DHT22;26723;57.478;12.066;2022-10-16T10:56:41;14.00;99.90
40996;DHT22;26723;57.478;12.066;2022-10-16T11:00:06;14.00;99.90
40996;DHT22;26723;57.478;12.066;2022-10-16T11:03:31;14.10;99.90
40996;DHT22;26723;57.478;12.066;2022-10-16T11:06:44;14.10;99.90
40996;DHT22;26723;57.478;12.066;2022-10-16T11:09:56;14.10;99.90
40996;DHT22;26723;57.478;12.066;2022-10-16T11:13:26;14.00;99.90
40996;DHT22;26723;57.478;12.066;2022-10-16T11:16:39;14.10;99.90
40996;DHT22;26723;57.478;12.066;2022-10-16T11:19:55;14.00;99.90
40996;DHT22;26723;57.478;12.066;2022-10-16T11:23:08;14.00;99.90
40996;DHT22;26723;57.478;12.066;2022-10-16T11:26:21;14.10;99.90
40996;DHT22;26723;57.478;12.066;2022-10-16T11:29:32;14.20;99.90
40996;DHT22;26723;57.478;12.066;2022-10-16T11:32:54;14.30;99.90
40996;DHT22;26723;57.478;12.066;2022-10-16T11:36:12;14.10;99.90
40996;DHT22;26723;57.478;12.066;2022-10-16T11:39:25;14.10;99.90
40996;DHT22;26723;57.478;12.066;2022-10-16T11:42:39;14.10;99.90
40996;DHT22;26723;57.478;12.066;2022-10-16T11:45:52;14.20;99.90
40996;DHT22;26723;57.478;12.066;2022-10-16T11:49:06;14.20;99.90
40996;DHT22;26723;57.478;12.066;2022-10-16T11:52:23;14.10;99.90
40996;DHT22;26723;57.478;12.066;2022-10-16T11:55:36;14.00;99.90
40996;DHT22;26723;57.478;12.066;2022-10-16T11:58:56;14.00;99.90
40996;DHT22;26723;57.478;12.066;2022-10-16T12:02:23;14.00;99.90
40996;DHT22;26723;57.478;12.066;2022-10-16T12:05:49;14.00;99.90
40996;DHT22;26723;57.478;12.066;2022-10-16T12:09:03;14.00;99.90
40996;DHT22;26723;57.478;12.066;2022-10-16T12:12:25;14.00;99.90
40996;DHT22;26723;57.478;12.066;2022-10-16T12:15:38;14.00;99.90
40996;DHT22;26723;57.478;12.066;2022-10-16T12:19:13;13.60;99.90
40996;DHT22;26723;57.478;12.066;2022-10-16T12:22:22;12.30;99.90
40996;DHT22;26723;57.478;12.066;2022-10-16T12:25:36;11.00;99.90
40996;DHT22;26723;57.478;12.066;2022-10-16T12:28:46;10.80;99.90
40996;DHT22;26723;57.478;12.066;2022-10-16T12:31:58;10.80;99.90
40996;DHT22;26723;57.478;12.066;2022-10-16T12:35:18;10.80;99.90
40996;DHT22;26723;57.478;12.066;2022-10-16T12:38:28;10.90;99.90
40996;DHT22;26723;57.478;12.066;2022-10-16T12:41:40;11.00;99.90
40996;DHT22;26723;57.478;12.066;2022-10-16T12:44:49;11.30;99.90
40996;DHT22;26723;57.478;12.066;2022-10-16T12:47:59;11.60;99.90
40996;DHT22;26723;57.478;12.066;2022-10-16T12:51:19;11.70;99.90
40996;DHT22;26723;57.478;12.066;2022-10-16T12:54:31;11.90;99.90
40996;DHT22;26723;57.478;12.066;2022-10-16T12:57:59;12.20;99.90
40996;DHT22;26723;57.478;12.066;2022-10-16T13:01:20;12.30;99.90
40996;DHT22;26723;57.478;12.066;2022-10-16T13:04:40;12.50;99.90
40996;DHT22;26723;57.478;12.066;2022-10-16T13:07:59;12.60;99.90
40996;DHT22;26723;57.478;12.066;2022-10-16T13:11:16;12.70;99.90
40996;DHT22;26723;57.478;12.066;2022-10-16T13:14:49;12.80;99.90
40996;DHT22;26723;57.478;12.066;2022-10-16T13:18:05;12.90;99.90
40996;DHT22;26723;57.478;12.066;2022-10-16T13:21:31;13.00;99.90
40996;DHT22;26723;57.478;12.066;2022-10-16T13:24:52;13.10;99.90
40996;DHT22;26723;57.478;12.066;2022-10-16T13:28:03;13.20;99.90
40996;DHT22;26723;57.478;12.066;2022-10-16T13:31:17;13.30;99.90
40996;DHT22;26723;57.478;12.066;2022-10-16T13:34:27;13.30;99.90
40996;DHT22;26723;57.478;12.066;2022-10-16T13:37:36;13.30;99.90
40996;DHT22;26723;57.478;12.066;2022-10-16T13:40:49;13.40;99.90
40996;DHT22;26723;57.478;12.066;2022-10-16T13:43:58;13.40;99.90
40996;DHT22;26723;57.478;12.066;2022-10-16T13:47:16;13.30;99.90
40996;DHT22;26723;57.478;12.066;2022-10-16T13:50:25;13.30;99.90
40996;DHT22;26723;57.478;12.066;2022-10-16T13:53:35;13.30;99.90
40996;DHT22;26723;57.478;12.066;2022-10-16T13:56:43;13.30;99.90
40996;DHT22;26723;57.478;12.066;2022-10-16T13:59:54;13.30;99.90
40996;DHT22;26723;57.478;12.066;2022-10-16T14:03:07;13.40;99.90
40996;DHT22;26723;57.478;12.066;2022-10-16T14:06:17;13.40;99.90
40996;DHT22;26723;57.478;12.066;2022-10-16T14:09:30;13.40;99.90
40996;DHT22;26723;57.478;12.066;2022-10-16T14:12:39;13.40;99.90
40996;DHT22;26723;57.478;12.066;2022-10-16T14:15:49;13.30;99.90
40996;DHT22;26723;57.478;12.066;2022-10-16T14:19:03;13.30;99.90
40996;DHT22;26723;57.478;12.066;2022-10-16T14:22:24;13.30;99.90
40996;DHT22;26723;57.478;12.066;2022-10-16T14:25:35;13.20;99.90
40996;DHT22;26723;57.478;12.066;2022-10-16T14:28:44;13.20;99.90
40996;DHT22;26723;57.478;12.066;2022-10-16T14:31:57;13.20;99.90
40996;DHT22;26723;57.478;12.066;2022-10-16T14:35:27;13.20;99.90
40996;DHT22;26723;57.478;12.066;2022-10-16T14:38:38;13.20;99.90
40996;DHT22;26723;57.478;12.066;2022-10-16T14:41:50;13.20;99.90
40996;DHT22;26723;57.478;12.066;2022-10-16T14:44:58;13.20;99.90
40996;DHT22;26723;57.478;12.066;2022-10-16T14:48:21;13.20;99.90
40996;DHT22;26723;57.478;12.066;2022-10-16T14:51:32;13.30;99.90
40996;DHT22;26723;57.478;12.066;2022-10-16T14:54:43;13.20;99.90
40996;DHT22;26723;57.478;12.066;2022-10-16T14:57:53;13.20;99.90
40996;DHT22;26723;57.478;12.066;2022-10-16T15:01:10;13.20;99.90
40996;DHT22;26723;57.478;12.066;2022-10-16T15:04:21;13.20;99.90
40996;DHT22;26723;57.478;12.066;2022-10-16T15:07:34;13.10;99.90
40996;DHT22;26723;57.478;12.066;2022-10-16T15:10:46;13.00;99.90
40996;DHT22;26723;57.478;12.066;2022-10-16T15:14:04;13.00;99.90
40996;DHT22;26723;57.478;12.066;2022-10-16T15:17:17;13.00;99.90
40996;DHT22;26723;57.478;12.066;2022-10-16T15:20:37;13.00;99.90
40996;DHT22;26723;57.478;12.066;2022-10-16T15:24:00;12.90;99.90
40996;DHT22;26723;57.478;12.066;2022-10-16T15:27:25;12.90;99.90
40996;DHT22;26723;57.478;12.066;2022-10-16T15:30:34;12.90;99.90
40996;DHT22;26723;57.478;12.066;2022-10-16T15:33:42;12.90;99.90
40996;DHT22;26723;57.478;12.066;2022-10-16T15:36:51;12.80;99.90
40996;DHT22;26723;57.478;12.066;2022-10-16T15:40:00;12.80;99.90
40996;DHT22;26723;57.478;12.066;2022-10-16T15:43:09;12.90;99.90
40996;DHT22;26723;57.478;12.066;2022-10-16T15:46:19;12.80;99.90
40996;DHT22;26723;57.478;12.066;2022-10-16T15:49:28;12.80;99.90
40996;DHT22;26723;57.478;12.066;2022-10-16T15:52:37;12.70;99.90
40996;DHT22;26723;57.478;12.066;2022-10-16T15:55:48;12.70;99.90
40996;DHT22;26723;57.478;12.066;2022-10-16T15:58:56;12.70;99.90
40996;DHT22;26723;57.478;12.066;2022-10-16T16:02:08;12.70;99.90
40996;DHT22;26723;57.478;12.066;2022-10-16T16:05:20;12.60;99.90
40996;DHT22;26723;57.478;12.066;2022-10-16T16:08:33;12.70;99.90
40996;DHT22;26723;57.478;12.066;2022-10-16T16:11:43;12.60;99.90
40996;DHT22;26723;57.478;12.066;2022-10-16T16:14:52;12.60;99.90
40996;DHT22;26723;57.478;12.066;2022-10-16T16:18:00;12.60;99.90
40996;DHT22;26723;57.478;12.066;2022-10-16T16:21:17;12.60;99.90
40996;DHT22;26723;57.478;12.066;2022-10-16T16:24:26;12.50;99.90
40996;DHT22;26723;57.478;12.066;2022-10-16T16:27:45;12.60;99.90
40996;DHT22;26723;57.478;12.066;2022-10-16T16:30:53;12.60;99.90
40996;DHT22;26723;57.478;12.066;2022-10-16T16:34:02;12.60;99.90
40996;DHT22;26723;57.478;12.066;2022-10-16T16:37:11;12.60;99.90
40996;DHT22;26723;57.478;12.066;2022-10-16T16:40:20;12.60;99.90
40996;DHT22;26723;57.478;12.066;2022-10-16T16:43:30;12.70;99.90
40996;DHT22;26723;57.478;12.066;2022-10-16T16:46:38;12.70;99.90
40996;DHT22;26723;57.478;12.066;2022-10-16T16:49:47;12.60;99.90
40996;DHT22;26723;57.478;12.066;2022-10-16T16:52:56;12.60;99.90
40996;DHT22;26723;57.478;12.066;2022-10-16T16:56:05;12.60;99.90
40996;DHT22;26723;57.478;12.066;2022-10-16T16:59:16;12.70;99.90
40996;DHT22;26723;57.478;12.066;2022-10-16T17:02:26;12.60;99.90
40996;DHT22;26723;57.478;12.066;2022-10-16T17:05:35;12.60;99.90
40996;DHT22;26723;57.478;12.066;2022-10-16T17:08:44;12.70;99.90
40996;DHT22;26723;57.478;12.066;2022-10-16T17:11:52;12.70;99.90
40996;DHT22;26723;57.478;12.066;2022-10-16T17:15:06;12.80;99.90
40996;DHT22;26723;57.478;12.066;2022-10-16T17:18:15;12.80;99.90
40996;DHT22;26723;57.478;12.066;2022-10-16T17:21:24;12.80;99.90
40996;DHT22;26723;57.478;12.066;2022-10-16T17:24:36;12.80;99.90
40996;DHT22;26723;57.478;12.066;2022-10-16T17:27:47;12.80;99.90
40996;DHT22;26723;57.478;12.066;2022-10-16T17:31:07;12.80;99.90
40996;DHT22;26723;57.478;12.066;2022-10-16T17:34:20;12.80;99.90
40996;DHT22;26723;57.478;12.066;2022-10-16T17:37:31;12.80;99.90
40996;DHT22;26723;57.478;12.066;2022-10-16T17:40:40;12.90;99.90
40996;DHT22;26723;57.478;12.066;2022-10-16T17:43:49;12.80;99.90
40996;DHT22;26723;57.478;12.066;2022-10-16T17:46:59;12.70;99.90
40996;DHT22;26723;57.478;12.066;2022-10-16T17:50:08;12.30;99.90
40996;DHT22;26723;57.478;12.066;2022-10-16T17:53:21;12.20;99.90
40996;DHT22;26723;57.478;12.066;2022-10-16T17:56:30;12.00;99.90
40996;DHT22;26723;57.478;12.066;2022-10-16T17:59:38;12.00;99.90
40996;DHT22;26723;57.478;12.066;2022-10-16T18:02:53;11.90;99.90
40996;DHT22;26723;57.478;12.066;2022-10-16T18:06:01;11.90;99.90
40996;DHT22;26723;57.478;12.066;2022-10-16T18:09:17;12.00;99.90
40996;DHT22;26723;57.478;12.066;2022-10-16T18:12:29;11.90;99.90
40996;DHT22;26723;57.478;12.066;2022-10-16T18:15:41;11.90;99.90
40996;DHT22;26723;57.478;12.066;2022-10-16T18:19:04;12.00;99.90
40996;DHT22;26723;57.478;12.066;2022-10-16T18:22:16;12.00;99.90
40996;DHT22;26723;57.478;12.066;2022-10-16T18:25:29;11.90;99.90
40996;DHT22;26723;57.478;12.066;2022-10-16T18:28:42;12.00;99.90
40996;DHT22;26723;57.478;12.066;2022-10-16T18:31:51;11.90;99.90
40996;DHT22;26723;57.478;12.066;2022-10-16T18:35:05;12.00;99.90
40996;DHT22;26723;57.478;12.066;2022-10-16T18:38:14;12.00;99.90
40996;DHT22;26723;57.478;12.066;2022-10-16T18:41:24;12.00;99.90
40996;DHT22;26723;57.478;12.066;2022-10-16T18:44:32;12.00;99.90
40996;DHT22;26723;57.478;12.066;2022-10-16T18:47:41;12.00;99.90
40996;DHT22;26723;57.478;12.066;2022-10-16T18:50:51;12.00;99.90
40996;DHT22;26723;57.478;12.066;2022-10-16T18:54:06;12.00;99.90
40996;DHT22;26723;57.478;12.066;2022-10-16T18:57:17;12.00;99.90
40996;DHT22;26723;57.478;12.066;2022-10-16T19:00:32;12.00;99.90
40996;DHT22;26723;57.478;12.066;2022-10-16T19:03:41;12.00;99.90
40996;DHT22;26723;57.478;12.066;2022-10-16T19:06:58;12.00;99.90
40996;DHT22;26723;57.478;12.066;2022-10-16T19:10:07;11.90;99.90
40996;DHT22;26723;57.478;12.066;2022-10-16T19:13:15;11.90;99.90
40996;DHT22;26723;57.478;12.066;2022-10-16T19:16:28;11.90;99.90
40996;DHT22;26723;57.478;12.066;2022-10-16T19:19:41;11.80;99.90
40996;DHT22;26723;57.478;12.066;2022-10-16T19:22:53;11.80;99.90
40996;DHT22;26723;57.478;12.066;2022-10-16T19:26:07;11.80;99.90
40996;DHT22;26723;57.478;12.066;2022-10-16T19:29:15;11.80;99.90
40996;DHT22;26723;57.478;12.066;2022-10-16T19:32:39;11.80;99.90
40996;DHT22;26723;57.478;12.066;2022-10-16T19:35:47;11.80;99.90
40996;DHT22;26723;57.478;12.066;2022-10-16T19:38:59;11.70;99.90
40996;DHT22;26723;57.478;12.066;2022-10-16T19:42:13;11.70;99.90
40996;DHT22;26723;57.478;12.066;2022-10-16T19:45:30;11.70;99.90
40996;DHT22;26723;57.478;12.066;2022-10-16T19:48:42;11.70;99.90
40996;DHT22;26723;57.478;12.066;2022-10-16T19:51:55;11.60;99.90
40996;DHT22;26723;57.478;12.066;2022-10-16T19:55:19;11.60;99.90
40996;DHT22;26723;57.478;12.066;2022-10-16T19:58:34;11.60;99.90